Canakkale, Turkey
Current Conditions -  °F | °C
As of 3:50 PM on Thursday 30 Oct 2014 (Local Time) from LTBH Reporting Station
Broken Clouds Broken Clouds  
Wind Chill: 54°   Ceiling: 10000
Heat Index: 54°   Visibility: 6mi
Dew Point: 52°   Wind: 13mph
Humidity: 94%   Direction: 50°NE
Pressure: 30.06"   Gusts: NA
Location:  40.16°N, 26.41°E
Report Text: LTBH 301250Z 05011KT 9999 FEW007 SCT035 BKN100 12/11 Q1018
Loading
Personal Weather Stations






























Interactive Weather Map
Tropical Storm Tracking
New forecast layout! Learn more

10-Day Weather Forecast

Advertisements
Track Severe Weather on mobile